sensor_id;sensor_type;location;lat;lon;timestamp;P1;durP1;ratioP1;P2;durP2;ratioP2
10275;SDS011;5183;51.190;6.820;2023-03-01T00:00:51;13.07;;;10.77;;
10275;SDS011;5183;51.190;6.820;2023-03-01T00:03:18;12.77;;;10.73;;
10275;SDS011;5183;51.190;6.820;2023-03-01T00:05:45;13.13;;;10.93;;
10275;SDS011;5183;51.190;6.820;2023-03-01T00:08:14;11.87;;;10.67;;
10275;SDS011;5183;51.190;6.820;2023-03-01T00:10:41;14.20;;;11.73;;
10275;SDS011;5183;51.190;6.820;2023-03-01T00:13:07;13.27;;;11.77;;
10275;SDS011;5183;51.190;6.820;2023-03-01T00:15:37;13.50;;;11.40;;
10275;SDS011;5183;51.190;6.820;2023-03-01T00:18:04;18.57;;;11.93;;
10275;SDS011;5183;51.190;6.820;2023-03-01T00:20:31;14.67;;;11.60;;
10275;SDS011;5183;51.190;6.820;2023-03-01T00:22:58;15.23;;;12.00;;
10275;SDS011;5183;51.190;6.820;2023-03-01T00:25:26;13.23;;;11.87;;
10275;SDS011;5183;51.190;6.820;2023-03-01T00:27:53;16.73;;;11.47;;
10275;SDS011;5183;51.190;6.820;2023-03-01T00:30:20;13.80;;;11.53;;
10275;SDS011;5183;51.190;6.820;2023-03-01T00:32:47;14.97;;;12.03;;
10275;SDS011;5183;51.190;6.820;2023-03-01T00:35:13;12.67;;;11.10;;
10275;SDS011;5183;51.190;6.820;2023-03-01T00:37:40;14.30;;;12.10;;
10275;SDS011;5183;51.190;6.820;2023-03-01T00:40:07;13.47;;;12.07;;
10275;SDS011;5183;51.190;6.820;2023-03-01T00:42:36;14.47;;;11.97;;
10275;SDS011;5183;51.190;6.820;2023-03-01T00:45:04;14.63;;;11.67;;
10275;SDS011;5183;51.190;6.820;2023-03-01T00:47:32;13.10;;;11.63;;
10275;SDS011;5183;51.190;6.820;2023-03-01T00:49:59;15.17;;;12.17;;
10275;SDS011;5183;51.190;6.820;2023-03-01T00:52:26;14.90;;;12.37;;
10275;SDS011;5183;51.190;6.820;2023-03-01T00:54:53;16.93;;;12.47;;
10275;SDS011;5183;51.190;6.820;2023-03-01T00:57:20;13.83;;;12.27;;
10275;SDS011;5183;51.190;6.820;2023-03-01T00:59:48;15.50;;;12.27;;
10275;SDS011;5183;51.190;6.820;2023-03-01T01:02:15;15.30;;;12.23;;
10275;SDS011;5183;51.190;6.820;2023-03-01T01:04:41;15.50;;;11.97;;
10275;SDS011;5183;51.190;6.820;2023-03-01T01:07:08;14.17;;;12.17;;
10275;SDS011;5183;51.190;6.820;2023-03-01T01:09:35;14.93;;;12.70;;
10275;SDS011;5183;51.190;6.820;2023-03-01T01:12:02;15.27;;;12.03;;
10275;SDS011;5183;51.190;6.820;2023-03-01T01:14:29;15.57;;;13.13;;
10275;SDS011;5183;51.190;6.820;2023-03-01T01:16:57;15.53;;;13.13;;
10275;SDS011;5183;51.190;6.820;2023-03-01T01:19:25;13.63;;;12.10;;
10275;SDS011;5183;51.190;6.820;2023-03-01T01:21:52;13.97;;;12.57;;
10275;SDS011;5183;51.190;6.820;2023-03-01T01:24:19;14.43;;;11.80;;
10275;SDS011;5183;51.190;6.820;2023-03-01T01:26:46;14.90;;;12.17;;
10275;SDS011;5183;51.190;6.820;2023-03-01T01:29:13;13.80;;;12.10;;
10275;SDS011;5183;51.190;6.820;2023-03-01T01:31:40;15.47;;;12.83;;
10275;SDS011;5183;51.190;6.820;2023-03-01T01:34:12;13.80;;;12.40;;
10275;SDS011;5183;51.190;6.820;2023-03-01T01:36:40;13.97;;;12.33;;
10275;SDS011;5183;51.190;6.820;2023-03-01T01:39:07;15.10;;;12.90;;
10275;SDS011;5183;51.190;6.820;2023-03-01T01:41:38;15.57;;;11.77;;
10275;SDS011;5183;51.190;6.820;2023-03-01T01:44:12;14.80;;;12.20;;
10275;SDS011;5183;51.190;6.820;2023-03-01T01:46:41;13.53;;;12.10;;
10275;SDS011;5183;51.190;6.820;2023-03-01T01:49:16;15.63;;;13.30;;
10275;SDS011;5183;51.190;6.820;2023-03-01T01:51:49;14.20;;;12.33;;
10275;SDS011;5183;51.190;6.820;2023-03-01T01:54:22;15.13;;;12.33;;
10275;SDS011;5183;51.190;6.820;2023-03-01T01:56:54;15.77;;;13.50;;
10275;SDS011;5183;51.190;6.820;2023-03-01T01:59:25;13.90;;;12.27;;
10275;SDS011;5183;51.190;6.820;2023-03-01T02:01:54;14.80;;;12.47;;
10275;SDS011;5183;51.190;6.820;2023-03-01T02:04:23;16.47;;;13.13;;
10275;SDS011;5183;51.190;6.820;2023-03-01T02:06:51;17.60;;;13.30;;
10275;SDS011;5183;51.190;6.820;2023-03-01T02:09:24;14.93;;;13.00;;
10275;SDS011;5183;51.190;6.820;2023-03-01T02:11:51;14.83;;;13.17;;
10275;SDS011;5183;51.190;6.820;2023-03-01T02:14:19;15.93;;;13.00;;
10275;SDS011;5183;51.190;6.820;2023-03-01T02:16:46;15.87;;;12.97;;
10275;SDS011;5183;51.190;6.820;2023-03-01T02:19:17;16.97;;;13.90;;
10275;SDS011;5183;51.190;6.820;2023-03-01T02:21:58;15.53;;;13.27;;
10275;SDS011;5183;51.190;6.820;2023-03-01T02:24:31;14.97;;;13.03;;
10275;SDS011;5183;51.190;6.820;2023-03-01T02:27:08;16.37;;;13.87;;
10275;SDS011;5183;51.190;6.820;2023-03-01T02:29:38;15.90;;;13.40;;
10275;SDS011;5183;51.190;6.820;2023-03-01T02:32:05;14.33;;;12.83;;
10275;SDS011;5183;51.190;6.820;2023-03-01T02:34:32;16.70;;;13.70;;
10275;SDS011;5183;51.190;6.820;2023-03-01T02:37:00;16.57;;;13.23;;
10275;SDS011;5183;51.190;6.820;2023-03-01T02:39:30;14.60;;;13.00;;
10275;SDS011;5183;51.190;6.820;2023-03-01T02:42:00;14.70;;;13.10;;
10275;SDS011;5183;51.190;6.820;2023-03-01T02:44:28;15.23;;;13.50;;
10275;SDS011;5183;51.190;6.820;2023-03-01T02:46:56;17.03;;;13.20;;
10275;SDS011;5183;51.190;6.820;2023-03-01T02:49:28;16.67;;;14.23;;
10275;SDS011;5183;51.190;6.820;2023-03-01T02:52:03;15.10;;;13.17;;
10275;SDS011;5183;51.190;6.820;2023-03-01T02:54:48;15.37;;;13.30;;
10275;SDS011;5183;51.190;6.820;2023-03-01T02:57:18;15.90;;;14.03;;
10275;SDS011;5183;51.190;6.820;2023-03-01T02:59:47;17.13;;;13.50;;
10275;SDS011;5183;51.190;6.820;2023-03-01T03:02:23;15.20;;;13.60;;
10275;SDS011;5183;51.190;6.820;2023-03-01T03:05:01;19.10;;;14.60;;
10275;SDS011;5183;51.190;6.820;2023-03-01T03:07:31;19.13;;;13.73;;
10275;SDS011;5183;51.190;6.820;2023-03-01T03:09:59;16.07;;;14.30;;
10275;SDS011;5183;51.190;6.820;2023-03-01T03:12:26;17.00;;;14.47;;
10275;SDS011;5183;51.190;6.820;2023-03-01T03:14:52;16.57;;;14.07;;
10275;SDS011;5183;51.190;6.820;2023-03-01T03:17:19;15.57;;;13.93;;
10275;SDS011;5183;51.190;6.820;2023-03-01T03:19:48;16.33;;;14.53;;
10275;SDS011;5183;51.190;6.820;2023-03-01T03:22:14;19.90;;;14.67;;
10275;SDS011;5183;51.190;6.820;2023-03-01T03:24:41;18.00;;;14.33;;
10275;SDS011;5183;51.190;6.820;2023-03-01T03:27:08;17.17;;;14.90;;
10275;SDS011;5183;51.190;6.820;2023-03-01T03:29:35;17.90;;;13.90;;
10275;SDS011;5183;51.190;6.820;2023-03-01T03:32:02;18.57;;;14.70;;
10275;SDS011;5183;51.190;6.820;2023-03-01T03:34:30;19.50;;;15.63;;
10275;SDS011;5183;51.190;6.820;2023-03-01T03:36:57;17.47;;;14.80;;
10275;SDS011;5183;51.190;6.820;2023-03-01T03:39:24;17.57;;;15.03;;
10275;SDS011;5183;51.190;6.820;2023-03-01T03:41:52;18.37;;;15.33;;
10275;SDS011;5183;51.190;6.820;2023-03-01T03:44:19;17.67;;;14.77;;
10275;SDS011;5183;51.190;6.820;2023-03-01T03:46:46;17.80;;;15.07;;
10275;SDS011;5183;51.190;6.820;2023-03-01T03:49:13;17.57;;;14.77;;
10275;SDS011;5183;51.190;6.820;2023-03-01T03:51:41;20.20;;;14.97;;
10275;SDS011;5183;51.190;6.820;2023-03-01T03:54:08;16.47;;;14.43;;
10275;SDS011;5183;51.190;6.820;2023-03-01T03:56:35;17.23;;;14.83;;
10275;SDS011;5183;51.190;6.820;2023-03-01T03:59:02;19.10;;;14.67;;
10275;SDS011;5183;51.190;6.820;2023-03-01T04:01:29;20.60;;;15.87;;
10275;SDS011;5183;51.190;6.820;2023-03-01T04:03:55;20.70;;;16.10;;
10275;SDS011;5183;51.190;6.820;2023-03-01T04:06:28;18.77;;;15.50;;
10275;SDS011;5183;51.190;6.820;2023-03-01T04:08:57;19.13;;;15.13;;
10275;SDS011;5183;51.190;6.820;2023-03-01T04:11:25;18.77;;;16.10;;
10275;SDS011;5183;51.190;6.820;2023-03-01T04:13:55;19.87;;;15.50;;
10275;SDS011;5183;51.190;6.820;2023-03-01T04:16:23;19.03;;;15.73;;
10275;SDS011;5183;51.190;6.820;2023-03-01T04:18:51;17.23;;;15.23;;
10275;SDS011;5183;51.190;6.820;2023-03-01T04:21:19;18.50;;;15.63;;
10275;SDS011;5183;51.190;6.820;2023-03-01T04:23:46;18.57;;;15.30;;
10275;SDS011;5183;51.190;6.820;2023-03-01T04:26:18;21.03;;;16.67;;
10275;SDS011;5183;51.190;6.820;2023-03-01T04:28:46;20.50;;;16.57;;
10275;SDS011;5183;51.190;6.820;2023-03-01T04:31:15;19.43;;;15.50;;
10275;SDS011;5183;51.190;6.820;2023-03-01T04:33:47;22.73;;;16.10;;
10275;SDS011;5183;51.190;6.820;2023-03-01T04:36:16;22.57;;;16.37;;
10275;SDS011;5183;51.190;6.820;2023-03-01T04:38:44;20.33;;;16.47;;
10275;SDS011;5183;51.190;6.820;2023-03-01T04:41:12;20.37;;;17.07;;
10275;SDS011;5183;51.190;6.820;2023-03-01T04:43:41;20.90;;;16.80;;
10275;SDS011;5183;51.190;6.820;2023-03-01T04:46:09;20.13;;;16.43;;
10275;SDS011;5183;51.190;6.820;2023-03-01T04:48:39;22.40;;;16.80;;
10275;SDS011;5183;51.190;6.820;2023-03-01T04:51:07;18.40;;;15.87;;
10275;SDS011;5183;51.190;6.820;2023-03-01T04:53:34;18.87;;;16.50;;
10275;SDS011;5183;51.190;6.820;2023-03-01T04:56:02;22.07;;;16.53;;
10275;SDS011;5183;51.190;6.820;2023-03-01T04:58:29;21.50;;;17.23;;
10275;SDS011;5183;51.190;6.820;2023-03-01T05:00:57;21.53;;;17.03;;
10275;SDS011;5183;51.190;6.820;2023-03-01T05:03:24;21.30;;;17.37;;
10275;SDS011;5183;51.190;6.820;2023-03-01T05:05:51;19.40;;;16.30;;
10275;SDS011;5183;51.190;6.820;2023-03-01T05:08:18;20.77;;;15.83;;
10275;SDS011;5183;51.190;6.820;2023-03-01T05:10:46;22.33;;;17.27;;
10275;SDS011;5183;51.190;6.820;2023-03-01T05:13:14;19.80;;;16.20;;
10275;SDS011;5183;51.190;6.820;2023-03-01T05:15:46;22.37;;;17.57;;
10275;SDS011;5183;51.190;6.820;2023-03-01T05:18:15;20.47;;;16.73;;
10275;SDS011;5183;51.190;6.820;2023-03-01T05:20:42;19.93;;;17.33;;
10275;SDS011;5183;51.190;6.820;2023-03-01T05:23:09;22.60;;;17.23;;
10275;SDS011;5183;51.190;6.820;2023-03-01T05:25:36;21.50;;;16.97;;
10275;SDS011;5183;51.190;6.820;2023-03-01T05:28:05;20.13;;;17.57;;
10275;SDS011;5183;51.190;6.820;2023-03-01T05:30:34;23.00;;;17.63;;
10275;SDS011;5183;51.190;6.820;2023-03-01T05:33:04;21.67;;;17.47;;
10275;SDS011;5183;51.190;6.820;2023-03-01T05:35:39;21.30;;;17.93;;
10275;SDS011;5183;51.190;6.820;2023-03-01T05:38:07;20.77;;;17.03;;
10275;SDS011;5183;51.190;6.820;2023-03-01T05:40:34;24.67;;;17.87;;
10275;SDS011;5183;51.190;6.820;2023-03-01T05:43:01;19.43;;;16.40;;
10275;SDS011;5183;51.190;6.820;2023-03-01T05:45:30;23.87;;;18.80;;
10275;SDS011;5183;51.190;6.820;2023-03-01T05:47:58;22.67;;;17.53;;
10275;SDS011;5183;51.190;6.820;2023-03-01T05:50:26;22.73;;;18.00;;
10275;SDS011;5183;51.190;6.820;2023-03-01T05:52:59;23.67;;;17.13;;
10275;SDS011;5183;51.190;6.820;2023-03-01T05:55:27;20.87;;;16.70;;
10275;SDS011;5183;51.190;6.820;2023-03-01T05:57:55;21.30;;;17.43;;
10275;SDS011;5183;51.190;6.820;2023-03-01T06:00:24;21.37;;;17.43;;
10275;SDS011;5183;51.190;6.820;2023-03-01T06:02:51;21.17;;;17.07;;
10275;SDS011;5183;51.190;6.820;2023-03-01T06:05:19;22.80;;;17.57;;
10275;SDS011;5183;51.190;6.820;2023-03-01T06:07:47;24.20;;;18.20;;
10275;SDS011;5183;51.190;6.820;2023-03-01T06:10:16;23.95;;;19.23;;
10275;SDS011;5183;51.190;6.820;2023-03-01T06:12:44;22.47;;;18.13;;
10275;SDS011;5183;51.190;6.820;2023-03-01T06:15:12;23.73;;;17.70;;
10275;SDS011;5183;51.190;6.820;2023-03-01T06:17:40;21.07;;;17.27;;
10275;SDS011;5183;51.190;6.820;2023-03-01T06:20:09;22.70;;;17.90;;
10275;SDS011;5183;51.190;6.820;2023-03-01T06:22:38;24.30;;;17.57;;
10275;SDS011;5183;51.190;6.820;2023-03-01T06:25:06;22.13;;;17.70;;
10275;SDS011;5183;51.190;6.820;2023-03-01T06:27:35;23.70;;;18.13;;
10275;SDS011;5183;51.190;6.820;2023-03-01T06:30:02;21.40;;;18.23;;
10275;SDS011;5183;51.190;6.820;2023-03-01T06:32:30;25.20;;;17.50;;
10275;SDS011;5183;51.190;6.820;2023-03-01T06:34:57;23.17;;;18.63;;
10275;SDS011;5183;51.190;6.820;2023-03-01T06:37:24;24.37;;;17.60;;
10275;SDS011;5183;51.190;6.820;2023-03-01T06:39:51;20.60;;;16.70;;
10275;SDS011;5183;51.190;6.820;2023-03-01T06:42:17;28.10;;;19.40;;
10275;SDS011;5183;51.190;6.820;2023-03-01T06:44:46;26.77;;;19.00;;
10275;SDS011;5183;51.190;6.820;2023-03-01T06:47:12;25.33;;;19.77;;
10275;SDS011;5183;51.190;6.820;2023-03-01T06:49:39;26.20;;;18.80;;
10275;SDS011;5183;51.190;6.820;2023-03-01T06:52:07;26.43;;;18.13;;
10275;SDS011;5183;51.190;6.820;2023-03-01T06:54:34;25.87;;;18.20;;
10275;SDS011;5183;51.190;6.820;2023-03-01T06:57:01;26.80;;;18.67;;
10275;SDS011;5183;51.190;6.820;2023-03-01T06:59:27;23.77;;;18.33;;
10275;SDS011;5183;51.190;6.820;2023-03-01T07:01:56;23.53;;;18.57;;
10275;SDS011;5183;51.190;6.820;2023-03-01T07:04:22;26.17;;;18.17;;
10275;SDS011;5183;51.190;6.820;2023-03-01T07:06:49;22.90;;;18.13;;
10275;SDS011;5183;51.190;6.820;2023-03-01T07:09:20;27.95;;;20.35;;
10275;SDS011;5183;51.190;6.820;2023-03-01T07:11:47;24.93;;;18.97;;
10275;SDS011;5183;51.190;6.820;2023-03-01T07:14:14;25.33;;;19.20;;
10275;SDS011;5183;51.190;6.820;2023-03-01T07:16:40;24.60;;;18.30;;
10275;SDS011;5183;51.190;6.820;2023-03-01T07:19:09;22.93;;;18.30;;
10275;SDS011;5183;51.190;6.820;2023-03-01T07:21:36;22.13;;;17.93;;
10275;SDS011;5183;51.190;6.820;2023-03-01T07:24:03;23.70;;;17.77;;
10275;SDS011;5183;51.190;6.820;2023-03-01T07:26:31;23.03;;;17.80;;
10275;SDS011;5183;51.190;6.820;2023-03-01T07:28:58;25.23;;;19.07;;
10275;SDS011;5183;51.190;6.820;2023-03-01T07:31:25;22.83;;;19.10;;
10275;SDS011;5183;51.190;6.820;2023-03-01T07:33:53;20.70;;;17.43;;
10275;SDS011;5183;51.190;6.820;2023-03-01T07:36:22;22.60;;;18.48;;
10275;SDS011;5183;51.190;6.820;2023-03-01T07:38:49;23.25;;;19.20;;
10275;SDS011;5183;51.190;6.820;2023-03-01T07:41:15;20.70;;;16.92;;
10275;SDS011;5183;51.190;6.820;2023-03-01T07:43:42;23.70;;;18.60;;
10275;SDS011;5183;51.190;6.820;2023-03-01T07:46:09;22.15;;;18.52;;
10275;SDS011;5183;51.190;6.820;2023-03-01T07:48:36;21.80;;;16.93;;
10275;SDS011;5183;51.190;6.820;2023-03-01T07:51:03;22.47;;;17.10;;
10275;SDS011;5183;51.190;6.820;2023-03-01T07:53:33;23.53;;;17.40;;
10275;SDS011;5183;51.190;6.820;2023-03-01T07:56:01;25.03;;;19.93;;
10275;SDS011;5183;51.190;6.820;2023-03-01T07:58:28;22.17;;;18.17;;
10275;SDS011;5183;51.190;6.820;2023-03-01T08:00:55;23.17;;;17.97;;
10275;SDS011;5183;51.190;6.820;2023-03-01T08:03:22;25.00;;;17.73;;
10275;SDS011;5183;51.190;6.820;2023-03-01T08:05:49;20.83;;;17.40;;
10275;SDS011;5183;51.190;6.820;2023-03-01T08:08:16;22.43;;;17.47;;
10275;SDS011;5183;51.190;6.820;2023-03-01T08:10:44;24.37;;;17.87;;
10275;SDS011;5183;51.190;6.820;2023-03-01T08:13:11;22.47;;;17.17;;
10275;SDS011;5183;51.190;6.820;2023-03-01T08:15:38;23.63;;;17.13;;
10275;SDS011;5183;51.190;6.820;2023-03-01T08:18:04;21.83;;;17.13;;
10275;SDS011;5183;51.190;6.820;2023-03-01T08:20:32;20.23;;;16.27;;
10275;SDS011;5183;51.190;6.820;2023-03-01T08:22:59;23.10;;;16.60;;
10275;SDS011;5183;51.190;6.820;2023-03-01T08:25:25;22.65;;;17.10;;
10275;SDS011;5183;51.190;6.820;2023-03-01T08:27:53;20.77;;;15.83;;
10275;SDS011;5183;51.190;6.820;2023-03-01T08:30:20;19.83;;;16.53;;
10275;SDS011;5183;51.190;6.820;2023-03-01T08:32:49;22.70;;;16.90;;
10275;SDS011;5183;51.190;6.820;2023-03-01T08:35:16;20.27;;;16.33;;
10275;SDS011;5183;51.190;6.820;2023-03-01T08:37:43;20.63;;;15.97;;
10275;SDS011;5183;51.190;6.820;2023-03-01T08:40:10;22.43;;;15.90;;
10275;SDS011;5183;51.190;6.820;2023-03-01T08:42:38;22.23;;;15.80;;
10275;SDS011;5183;51.190;6.820;2023-03-01T08:45:07;20.50;;;16.47;;
10275;SDS011;5183;51.190;6.820;2023-03-01T08:47:35;21.80;;;17.53;;
10275;SDS011;5183;51.190;6.820;2023-03-01T08:50:02;23.03;;;16.50;;
10275;SDS011;5183;51.190;6.820;2023-03-01T08:52:31;20.23;;;15.87;;
10275;SDS011;5183;51.190;6.820;2023-03-01T08:54:59;20.00;;;15.43;;
10275;SDS011;5183;51.190;6.820;2023-03-01T08:57:27;21.67;;;16.40;;
10275;SDS011;5183;51.190;6.820;2023-03-01T08:59:53;20.23;;;15.83;;
10275;SDS011;5183;51.190;6.820;2023-03-01T09:02:22;20.97;;;15.37;;
10275;SDS011;5183;51.190;6.820;2023-03-01T09:04:49;19.40;;;14.77;;
10275;SDS011;5183;51.190;6.820;2023-03-01T09:07:16;18.67;;;15.03;;
10275;SDS011;5183;51.190;6.820;2023-03-01T09:09:43;18.17;;;15.33;;
10275;SDS011;5183;51.190;6.820;2023-03-01T09:12:09;20.10;;;15.27;;
10275;SDS011;5183;51.190;6.820;2023-03-01T09:14:36;19.73;;;15.10;;
10275;SDS011;5183;51.190;6.820;2023-03-01T09:17:03;22.63;;;16.20;;
10275;SDS011;5183;51.190;6.820;2023-03-01T09:19:32;20.93;;;15.83;;
10275;SDS011;5183;51.190;6.820;2023-03-01T09:21:59;20.00;;;15.37;;
10275;SDS011;5183;51.190;6.820;2023-03-01T09:24:25;21.27;;;15.90;;
10275;SDS011;5183;51.190;6.820;2023-03-01T09:26:53;20.40;;;15.73;;
10275;SDS011;5183;51.190;6.820;2023-03-01T09:29:21;19.00;;;14.93;;
10275;SDS011;5183;51.190;6.820;2023-03-01T09:31:48;20.77;;;13.33;;
10275;SDS011;5183;51.190;6.820;2023-03-01T09:34:15;20.47;;;14.03;;
10275;SDS011;5183;51.190;6.820;2023-03-01T09:36:49;19.87;;;13.50;;
10275;SDS011;5183;51.190;6.820;2023-03-01T09:39:16;19.70;;;13.70;;
10275;SDS011;5183;51.190;6.820;2023-03-01T09:41:46;15.47;;;13.07;;
10275;SDS011;5183;51.190;6.820;2023-03-01T09:47:09;16.93;;;13.27;;
10275;SDS011;5183;51.190;6.820;2023-03-01T09:49:39;16.83;;;12.70;;
10275;SDS011;5183;51.190;6.820;2023-03-01T09:52:17;18.17;;;14.43;;
10275;SDS011;5183;51.190;6.820;2023-03-01T09:54:49;19.00;;;13.90;;
10275;SDS011;5183;51.190;6.820;2023-03-01T09:57:24;15.37;;;12.90;;
10275;SDS011;5183;51.190;6.820;2023-03-01T09:59:58;17.33;;;14.10;;
10275;SDS011;5183;51.190;6.820;2023-03-01T10:02:38;17.30;;;13.88;;
10275;SDS011;5183;51.190;6.820;2023-03-01T10:08:30;16.23;;;12.57;;
10275;SDS011;5183;51.190;6.820;2023-03-01T10:11:04;16.07;;;13.10;;
10275;SDS011;5183;51.190;6.820;2023-03-01T10:13:33;15.77;;;12.60;;
10275;SDS011;5183;51.190;6.820;2023-03-01T10:16:10;18.13;;;13.73;;
10275;SDS011;5183;51.190;6.820;2023-03-01T10:18:39;17.80;;;13.43;;
10275;SDS011;5183;51.190;6.820;2023-03-01T10:21:12;16.87;;;13.00;;
10275;SDS011;5183;51.190;6.820;2023-03-01T10:23:43;17.73;;;12.77;;
10275;SDS011;5183;51.190;6.820;2023-03-01T10:26:17;17.27;;;12.27;;
10275;SDS011;5183;51.190;6.820;2023-03-01T10:29:07;18.13;;;12.67;;
10275;SDS011;5183;51.190;6.820;2023-03-01T10:31:39;14.03;;;11.63;;
10275;SDS011;5183;51.190;6.820;2023-03-01T10:34:13;15.40;;;11.83;;
10275;SDS011;5183;51.190;6.820;2023-03-01T10:36:42;15.97;;;12.53;;
10275;SDS011;5183;51.190;6.820;2023-03-01T10:39:15;13.93;;;12.03;;
10275;SDS011;5183;51.190;6.820;2023-03-01T10:42:00;14.50;;;12.30;;
10275;SDS011;5183;51.190;6.820;2023-03-01T10:44:41;16.30;;;12.83;;
10275;SDS011;5183;51.190;6.820;2023-03-01T10:47:12;15.90;;;11.73;;
10275;SDS011;5183;51.190;6.820;2023-03-01T10:49:51;14.40;;;12.30;;
10275;SDS011;5183;51.190;6.820;2023-03-01T10:52:26;16.13;;;12.83;;
10275;SDS011;5183;51.190;6.820;2023-03-01T10:54:59;15.50;;;12.53;;
10275;SDS011;5183;51.190;6.820;2023-03-01T10:57:30;14.47;;;12.90;;
10275;SDS011;5183;51.190;6.820;2023-03-01T11:00:09;15.57;;;12.50;;
10275;SDS011;5183;51.190;6.820;2023-03-01T11:02:51;15.60;;;13.57;;
10275;SDS011;5183;51.190;6.820;2023-03-01T11:05:29;15.10;;;12.17;;
10275;SDS011;5183;51.190;6.820;2023-03-01T11:07:58;16.33;;;12.27;;
10275;SDS011;5183;51.190;6.820;2023-03-01T11:10:28;15.77;;;12.60;;
10275;SDS011;5183;51.190;6.820;2023-03-01T11:13:05;13.90;;;12.03;;
10275;SDS011;5183;51.190;6.820;2023-03-01T11:15:33;15.60;;;12.50;;
10275;SDS011;5183;51.190;6.820;2023-03-01T11:18:00;15.25;;;13.60;;
10275;SDS011;5183;51.190;6.820;2023-03-01T11:20:29;15.57;;;12.90;;
10275;SDS011;5183;51.190;6.820;2023-03-01T11:22:59;14.37;;;12.53;;
10275;SDS011;5183;51.190;6.820;2023-03-01T11:25:30;15.73;;;13.17;;
10275;SDS011;5183;51.190;6.820;2023-03-01T11:28:01;16.63;;;13.30;;
10275;SDS011;5183;51.190;6.820;2023-03-01T11:30:31;17.10;;;12.53;;
10275;SDS011;5183;51.190;6.820;2023-03-01T11:33:04;18.10;;;13.00;;
10275;SDS011;5183;51.190;6.820;2023-03-01T11:35:41;15.50;;;12.27;;
10275;SDS011;5183;51.190;6.820;2023-03-01T11:38:15;17.77;;;13.47;;
10275;SDS011;5183;51.190;6.820;2023-03-01T11:40:49;15.67;;;12.70;;
10275;SDS011;5183;51.190;6.820;2023-03-01T11:43:20;16.20;;;12.23;;
10275;SDS011;5183;51.190;6.820;2023-03-01T11:46:02;15.13;;;12.07;;
10275;SDS011;5183;51.190;6.820;2023-03-01T11:48:52;17.13;;;12.30;;
10275;SDS011;5183;51.190;6.820;2023-03-01T11:51:34;16.57;;;13.50;;
10275;SDS011;5183;51.190;6.820;2023-03-01T11:54:13;14.67;;;12.17;;
10275;SDS011;5183;51.190;6.820;2023-03-01T11:56:52;15.43;;;13.30;;
10275;SDS011;5183;51.190;6.820;2023-03-01T12:02:41;14.77;;;11.87;;
10275;SDS011;5183;51.190;6.820;2023-03-01T12:05:42;15.67;;;12.50;;
10275;SDS011;5183;51.190;6.820;2023-03-01T12:08:29;14.90;;;12.60;;
10275;SDS011;5183;51.190;6.820;2023-03-01T12:11:03;15.50;;;12.20;;
10275;SDS011;5183;51.190;6.820;2023-03-01T12:13:51;14.10;;;11.90;;
10275;SDS011;5183;51.190;6.820;2023-03-01T12:19:30;14.07;;;12.40;;
10275;SDS011;5183;51.190;6.820;2023-03-01T12:22:09;15.87;;;12.27;;
10275;SDS011;5183;51.190;6.820;2023-03-01T12:24:53;14.47;;;11.80;;
10275;SDS011;5183;51.190;6.820;2023-03-01T12:27:44;17.90;;;12.57;;
10275;SDS011;5183;51.190;6.820;2023-03-01T12:30:29;18.00;;;12.17;;
10275;SDS011;5183;51.190;6.820;2023-03-01T12:33:09;12.93;;;11.53;;
10275;SDS011;5183;51.190;6.820;2023-03-01T12:35:50;13.87;;;11.73;;
10275;SDS011;5183;51.190;6.820;2023-03-01T12:38:37;13.00;;;11.00;;
10275;SDS011;5183;51.190;6.820;2023-03-01T12:44:10;12.47;;;10.37;;
10275;SDS011;5183;51.190;6.820;2023-03-01T12:46:55;11.97;;;9.93;;
10275;SDS011;5183;51.190;6.820;2023-03-01T12:49:33;12.80;;;9.77;;
10275;SDS011;5183;51.190;6.820;2023-03-01T12:52:07;12.30;;;10.00;;
10275;SDS011;5183;51.190;6.820;2023-03-01T12:54:40;11.90;;;9.60;;
10275;SDS011;5183;51.190;6.820;2023-03-01T12:57:09;13.93;;;9.97;;
10275;SDS011;5183;51.190;6.820;2023-03-01T12:59:43;11.70;;;9.97;;
10275;SDS011;5183;51.190;6.820;2023-03-01T13:02:22;11.67;;;10.47;;
10275;SDS011;5183;51.190;6.820;2023-03-01T13:04:53;12.17;;;10.30;;
10275;SDS011;5183;51.190;6.820;2023-03-01T13:07:34;11.37;;;9.63;;
10275;SDS011;5183;51.190;6.820;2023-03-01T13:10:11;11.10;;;9.27;;
10275;SDS011;5183;51.190;6.820;2023-03-01T13:12:50;10.77;;;9.40;;
10275;SDS011;5183;51.190;6.820;2023-03-01T13:15:26;11.27;;;9.40;;
10275;SDS011;5183;51.190;6.820;2023-03-01T13:17:59;10.90;;;9.37;;
10275;SDS011;5183;51.190;6.820;2023-03-01T13:20:30;9.67;;;8.63;;
10275;SDS011;5183;51.190;6.820;2023-03-01T13:23:01;10.97;;;9.33;;
10275;SDS011;5183;51.190;6.820;2023-03-01T13:25:35;10.47;;;9.30;;
10275;SDS011;5183;51.190;6.820;2023-03-01T13:37:30;9.43;;;8.47;;
10275;SDS011;5183;51.190;6.820;2023-03-01T13:43:29;11.53;;;8.87;;
10275;SDS011;5183;51.190;6.820;2023-03-01T13:45:58;9.67;;;8.53;;
10275;SDS011;5183;51.190;6.820;2023-03-01T13:48:28;11.07;;;9.10;;
10275;SDS011;5183;51.190;6.820;2023-03-01T13:50:59;11.67;;;8.97;;
10275;SDS011;5183;51.190;6.820;2023-03-01T13:53:29;10.27;;;8.47;;
10275;SDS011;5183;51.190;6.820;2023-03-01T13:56:00;10.73;;;8.70;;
10275;SDS011;5183;51.190;6.820;2023-03-01T13:58:29;15.33;;;10.53;;
10275;SDS011;5183;51.190;6.820;2023-03-01T14:00:58;12.40;;;10.07;;
10275;SDS011;5183;51.190;6.820;2023-03-01T14:03:27;10.77;;;8.83;;
10275;SDS011;5183;51.190;6.820;2023-03-01T14:06:05;9.10;;;7.87;;
10275;SDS011;5183;51.190;6.820;2023-03-01T14:08:34;11.93;;;8.57;;
10275;SDS011;5183;51.190;6.820;2023-03-01T14:11:08;10.90;;;9.17;;
10275;SDS011;5183;51.190;6.820;2023-03-01T14:13:54;9.87;;;8.83;;
10275;SDS011;5183;51.190;6.820;2023-03-01T14:16:35;11.35;;;9.82;;
10275;SDS011;5183;51.190;6.820;2023-03-01T14:19:14;10.77;;;9.37;;
10275;SDS011;5183;51.190;6.820;2023-03-01T14:21:46;12.27;;;9.30;;
10275;SDS011;5183;51.190;6.820;2023-03-01T14:24:17;12.07;;;9.50;;
10275;SDS011;5183;51.190;6.820;2023-03-01T14:26:45;10.37;;;8.87;;
10275;SDS011;5183;51.190;6.820;2023-03-01T14:29:25;10.10;;;9.00;;
10275;SDS011;5183;51.190;6.820;2023-03-01T14:31:53;11.53;;;9.17;;
10275;SDS011;5183;51.190;6.820;2023-03-01T14:34:20;11.97;;;9.23;;
10275;SDS011;5183;51.190;6.820;2023-03-01T14:36:50;11.73;;;9.73;;
10275;SDS011;5183;51.190;6.820;2023-03-01T14:39:18;11.97;;;9.03;;
10275;SDS011;5183;51.190;6.820;2023-03-01T14:41:46;11.40;;;9.40;;
10275;SDS011;5183;51.190;6.820;2023-03-01T14:44:14;13.37;;;9.30;;
10275;SDS011;5183;51.190;6.820;2023-03-01T14:46:44;11.13;;;9.00;;
10275;SDS011;5183;51.190;6.820;2023-03-01T14:49:13;13.03;;;8.97;;
10275;SDS011;5183;51.190;6.820;2023-03-01T14:51:43;11.53;;;9.23;;
10275;SDS011;5183;51.190;6.820;2023-03-01T14:54:20;12.20;;;8.93;;
10275;SDS011;5183;51.190;6.820;2023-03-01T14:56:50;11.80;;;8.57;;
10275;SDS011;5183;51.190;6.820;2023-03-01T14:59:18;11.90;;;8.93;;
10275;SDS011;5183;51.190;6.820;2023-03-01T15:01:47;9.53;;;8.33;;
10275;SDS011;5183;51.190;6.820;2023-03-01T15:04:14;10.93;;;9.32;;
10275;SDS011;5183;51.190;6.820;2023-03-01T15:06:42;10.52;;;8.68;;
10275;SDS011;5183;51.190;6.820;2023-03-01T15:09:12;10.13;;;8.27;;
10275;SDS011;5183;51.190;6.820;2023-03-01T15:11:43;10.43;;;8.73;;
10275;SDS011;5183;51.190;6.820;2023-03-01T15:14:29;10.93;;;8.80;;
10275;SDS011;5183;51.190;6.820;2023-03-01T15:17:16;13.83;;;8.97;;
10275;SDS011;5183;51.190;6.820;2023-03-01T15:19:52;10.60;;;8.33;;
10275;SDS011;5183;51.190;6.820;2023-03-01T15:22:18;10.53;;;8.37;;